AirNav   Everest Fuels
 
 739 users online  

7PS3 Susquehanna High School Heliport
Susquehanna, Pennsylvania, USA

GOING TO SUSQUEHANNA?


FAA INFORMATION EFFECTIVE 07 NOVEMBER 2019

Location

FAA Identifier: 7PS3
Lat/Long: 41-56-59.2300N 075-35-20.2300W
41-56.987167N 075-35.337167W
41.9497861,-75.5889528
(estimated)
Elevation: 1040 ft. / 317 m (estimated)
Variation: 13W (2005)
From city: 1 mile NW of SUSQUEHANNA, PA
Time zone: UTC -5 (UTC -4 during Daylight Saving Time)
Zip code: 18847

Heliport Operations

Heliport use: Private use, MEDICAL USE.
Activation date: 01/2007
Control tower: no
ARTCC: NEW YORK CENTER
FSS: WILLIAMSPORT FLIGHT SERVICE STATION
NOTAMs facility: FDC (NOTAM-D service not available)
Attendance: UNATNDD
Segmented circle: no
Lights: FOR PERIMETER LIGHTS CALL 570-853-4921.

Heliport Communications

BINGHAMTON APPROACH: 118.6
BINGHAMTON DEPARTURE: 118.6
FIVLU DP: 118.6

Nearby radio navigation aids

VOR radial/distance  VOR name  Freq  Var
HNKr252/13.9HANCOCK VOR/DME116.8011W
CFBr127/27.4BINGHAMTON VOR/DME112.2010W
DNYr255/31.3DELANCEY VOR/DME112.1011W
RKAr218/34.7ROCKDALE VOR/DME112.6011W

Heliport Services

Runway Information

Helipad H1

Dimensions: 50 x 50 ft. / 15 x 15 m
Surface: turf, in fair condition
Runway edge lights: PERI
Latitude: 41-56.987167N
Longitude: 075-35.337167W
Elevation: 1040.0 ft.
Traffic pattern: leftleft
Markings: none, in fair condition

Heliport Ownership and Management from official FAA records

Ownership: Privately-owned
Owner: SUSQUEHANNA HIGH SCHOOL
3192 TUNPIKE ST.
SUSQUEHANNA, PA 18847-9504
Phone 570-853-4921
Manager: BRONSON STONE
3192 TUNPIKE ST.
SUSQUEHANNA, PA 18847-9504
Phone 570-853-4921
(520) 709-3190

Additional Remarks

FOR CD CTC NEW YORK ARTCC AT 631-468-1425.

Instrument Procedures

There are no published instrument procedures at 7PS3.

Some nearby airports with instrument procedures:

N23 - Sidney Municipal Airport (23 nm N)
9N3 - Seamans Field Airport (23 nm S)
KBGM - Greater Binghamton Airport/Edwin A Link Field (23 nm NW)
KCZG - Tri-Cities Airport (24 nm W)
N30 - Cherry Ridge Airport (30 nm SE)
 
Loc | Ops | Rwys | IFR | FBO | Links
Com | Nav | Svcs | Stats | Notes
Area around 7PS3 (Susquehanna High School Heliport)
 
Road maps at: MapQuest Bing Google
 
Aerial photo
No photo
 
Sectional chart

 
Airport distance calculator
Flying to Susquehanna High School Heliport? Find the distance to fly.

From to 7PS3

Sunrise and sunset
Times for 15-Nov-2019
 Local
(UTC-5)
 Zulu
(UTC)
Morning civil twilight06:2311:23
Sunrise06:5311:53
Sunset16:4121:41
Evening civil twilight17:1122:11

Current date and time
Zulu (UTC)  16-Nov-2019 02:10:43
Local (UTC-5)  15-Nov-2019 21:10:43
 
METAR
KBGM 
24nm NW 
160153Z 33009KT 10SM BKN024 OVC038 M01/M04 A3021 RMK AO2 SLP250 T10061044
KAVP 
38nm S 
160154Z 35005KT 9SM OVC027 04/M02 A3025 RMK AO2 SLP248 T00391022
KMSV 
39nm E 
160156Z AUTO 30013G17KT 10SM BKN024 OVC029 02/M03 A3020 RMK AO2 SLP241 T00171033 FZRANO
TAF
KBGM 
24nm NW 
151730Z 1518/1618 27006KT P6SM SKC FM152000 28009KT P6SM BKN025 FM160800 35010KT P6SM SKC FM161300 VRB04KT P6SM SKC
NOTAMs
Click for the latest NOTAMs
NOTAMs are issued by the DoD/FAA and will open in a separate window not controlled by AirNav.

 

 
 

Would you like to see your business listed on this page?

 If your business provides an interesting product or service to pilots, flight crews, aircraft, or users of the Susquehanna High School Heliport, you should consider listing it here.  To start the listing process, click on the button below
 
Add a business
 

Other Pages about Susquehanna High School Heliport

Update a link
 
Copyright © AirNav, LLC. All rights reserved. Privacy Policy  Contact